createdAt,value
2023-02-20T00:03:05.777Z,0
2023-02-20T00:03:46.323Z,0
2023-02-20T00:04:26.791Z,0
2023-02-20T00:05:07.339Z,0
2023-02-20T00:05:47.882Z,0
2023-02-20T00:06:28.421Z,0
2023-02-20T00:07:08.973Z,0
2023-02-20T00:10:25.481Z,0
2023-02-20T00:11:06.032Z,0
2023-02-20T00:11:46.685Z,0
2023-02-20T00:12:27.213Z,0
2023-02-20T00:13:07.785Z,0
2023-02-20T00:16:24.089Z,0
2023-02-20T00:17:04.610Z,0
2023-02-20T00:17:45.154Z,0
2023-02-20T00:18:25.655Z,0
2023-02-20T00:19:06.188Z,0
2023-02-20T00:22:22.554Z,0
2023-02-20T00:23:03.063Z,0
2023-02-20T00:23:43.594Z,0
2023-02-20T00:24:24.106Z,0
2023-02-20T00:25:04.634Z,0
2023-02-20T00:25:45.148Z,0
2023-02-20T00:26:25.655Z,0
2023-02-20T00:27:06.172Z,0
2023-02-20T00:27:46.747Z,0
2023-02-20T00:28:27.246Z,0
2023-02-20T00:33:47.813Z,0
2023-02-20T00:34:28.316Z,0
2023-02-20T00:35:08.850Z,0
2023-02-20T00:35:49.367Z,0
2023-02-20T00:36:29.889Z,0
2023-02-20T00:37:10.420Z,0
2023-02-20T00:37:50.969Z,0
2023-02-20T00:38:31.497Z,0
2023-02-20T00:39:12.018Z,0
2023-02-20T00:39:54.008Z,0
2023-02-20T00:44:37.667Z,0
2023-02-20T00:45:18.183Z,0
2023-02-20T00:45:58.730Z,0
2023-02-20T00:46:39.310Z,0
2023-02-20T00:47:19.781Z,0
2023-02-20T00:48:00.370Z,0
2023-02-20T00:48:40.933Z,0
2023-02-20T00:49:21.421Z,0
2023-02-20T00:50:01.924Z,0
2023-02-20T00:50:42.458Z,0
2023-02-20T00:54:01.175Z,0
2023-02-20T00:54:41.680Z,0
2023-02-20T00:55:22.218Z,0
2023-02-20T00:56:02.756Z,0
2023-02-20T00:56:43.290Z,0
2023-02-20T00:57:23.783Z,0
2023-02-20T00:58:04.318Z,0
2023-02-20T00:58:44.885Z,0
2023-02-20T00:59:25.420Z,0
2023-02-20T01:05:30.890Z,0
2023-02-20T01:07:43.628Z,0
2023-02-20T01:08:24.150Z,0
2023-02-20T01:09:04.671Z,0
2023-02-20T01:09:45.237Z,0
2023-02-20T01:10:25.766Z,0
2023-02-20T01:11:06.354Z,0
2023-02-20T01:11:46.902Z,0
2023-02-20T01:12:27.467Z,0
2023-02-20T01:15:43.865Z,0
2023-02-20T01:16:24.483Z,0
2023-02-20T01:17:04.974Z,0
2023-02-20T01:17:45.544Z,0
2023-02-20T01:18:26.093Z,0
2023-02-20T01:19:06.623Z,0
2023-02-20T01:19:47.163Z,0
2023-02-20T01:20:27.720Z,0
2023-02-20T01:21:08.232Z,0
2023-02-20T01:21:48.737Z,0
2023-02-20T01:27:54.451Z,0
2023-02-20T01:28:34.965Z,0
2023-02-20T01:29:15.487Z,0
2023-02-20T01:31:28.571Z,0
2023-02-20T01:32:09.076Z,0
2023-02-20T01:32:49.561Z,0
2023-02-20T01:33:30.072Z,0
2023-02-20T01:34:10.601Z,0
2023-02-20T01:34:51.113Z,0
2023-02-20T01:35:31.624Z,0
2023-02-20T01:36:12.383Z,0
2023-02-20T01:36:52.719Z,0
2023-02-20T01:39:05.513Z,0
2023-02-20T01:39:46.040Z,0
2023-02-20T01:40:26.628Z,0
2023-02-20T01:41:07.195Z,0
2023-02-20T01:41:47.729Z,0
2023-02-20T01:42:28.244Z,0
2023-02-20T01:43:08.796Z,0
2023-02-20T01:43:49.364Z,0
2023-02-20T01:44:29.883Z,0
2023-02-20T01:45:10.401Z,0
2023-02-20T01:51:15.216Z,0
2023-02-20T01:51:55.746Z,0
2023-02-20T01:52:36.254Z,0
2023-02-20T01:53:16.789Z,0
2023-02-20T01:56:33.758Z,0
2023-02-20T01:57:14.259Z,0
2023-02-20T01:57:54.809Z,0
2023-02-20T01:58:35.358Z,0
2023-02-20T01:59:15.877Z,0
2023-02-20T01:59:56.408Z,0
2023-02-20T02:00:37.882Z,0
2023-02-20T02:07:23.254Z,0
2023-02-20T02:08:03.810Z,0
2023-02-20T02:08:44.348Z,0
2023-02-20T02:10:57.071Z,0
2023-02-20T02:11:37.596Z,0
2023-02-20T02:12:18.143Z,0
2023-02-20T02:12:58.658Z,0
2023-02-20T02:13:39.161Z,0
2023-02-20T02:14:19.703Z,0
2023-02-20T02:15:00.242Z,0
2023-02-20T02:15:40.761Z,0
2023-02-20T02:16:21.344Z,0
2023-02-20T02:17:01.813Z,0
2023-02-20T02:23:06.811Z,0
2023-02-20T02:23:47.298Z,0
2023-02-20T02:24:27.818Z,0
2023-02-20T02:25:08.334Z,0
2023-02-20T02:25:48.852Z,0
2023-02-20T02:29:05.176Z,0
2023-02-20T02:29:45.709Z,0
2023-02-20T02:30:26.325Z,0
2023-02-20T02:31:06.827Z,0
2023-02-20T02:31:47.333Z,0
2023-02-20T02:32:27.809Z,0
2023-02-20T02:35:43.803Z,0
2023-02-20T02:36:24.324Z,0
2023-02-20T02:37:04.855Z,0
2023-02-20T02:37:45.353Z,0
2023-02-20T02:38:25.930Z,0
2023-02-20T02:39:06.453Z,0
2023-02-20T02:42:22.819Z,0
2023-02-20T02:43:03.366Z,0
2023-02-20T02:43:43.878Z,0
2023-02-20T02:44:24.396Z,0
2023-02-20T02:45:04.915Z,0
2023-02-20T02:45:45.471Z,0
2023-02-20T02:49:01.704Z,0
2023-02-20T02:49:42.214Z,0
2023-02-20T02:50:22.766Z,0
2023-02-20T02:51:03.322Z,0
2023-02-20T02:51:43.796Z,0
2023-02-20T02:52:24.366Z,0
2023-02-20T02:53:04.914Z,0
2023-02-20T02:53:45.491Z,0
2023-02-20T02:54:26.652Z,0
2023-02-20T03:00:31.382Z,0
2023-02-20T03:01:11.977Z,0
2023-02-20T03:01:52.486Z,0
2023-02-20T03:02:33.021Z,0
2023-02-20T03:03:13.512Z,0
2023-02-20T03:03:54.038Z,0
2023-02-20T03:07:10.337Z,0
2023-02-20T03:07:50.849Z,0
2023-02-20T03:08:31.469Z,0
2023-02-20T03:09:11.980Z,0
2023-02-20T03:09:52.458Z,0
2023-02-20T03:10:32.992Z,0
2023-02-20T03:11:13.522Z,0
2023-02-20T03:11:54.006Z,0
2023-02-20T03:12:34.539Z,0
2023-02-20T03:15:51.316Z,0
2023-02-20T03:16:31.900Z,0
2023-02-20T03:17:12.355Z,0
2023-02-20T03:17:52.911Z,0
2023-02-20T03:18:33.425Z,0
2023-02-20T03:19:13.977Z,0
2023-02-20T03:19:54.459Z,0
2023-02-20T03:20:35.010Z,0
2023-02-20T03:21:15.522Z,0
2023-02-20T03:21:56.061Z,0
2023-02-20T03:25:55.663Z,0
2023-02-20T03:26:36.170Z,0
2023-02-20T03:27:16.731Z,0
2023-02-20T03:27:57.278Z,0
2023-02-20T03:28:37.858Z,0
2023-02-20T03:30:50.584Z,0
2023-02-20T03:31:31.264Z,0
2023-02-20T03:32:11.656Z,0
2023-02-20T03:32:52.198Z,0
2023-02-20T03:35:11.102Z,0
2023-02-20T03:35:51.607Z,0
2023-02-20T03:36:32.123Z,0
2023-02-20T03:37:12.654Z,0
2023-02-20T03:37:53.168Z,0
2023-02-20T03:38:33.713Z,0
2023-02-20T03:39:14.237Z,0
2023-02-20T03:39:54.761Z,0
2023-02-20T03:40:35.273Z,0
2023-02-20T03:41:15.833Z,0
2023-02-20T03:44:34.797Z,0
2023-02-20T03:45:15.328Z,0
2023-02-20T03:45:55.926Z,0
2023-02-20T03:46:36.419Z,0
2023-02-20T03:47:16.932Z,0
2023-02-20T03:47:57.432Z,0
2023-02-20T03:48:37.935Z,0
2023-02-20T03:49:18.471Z,0
2023-02-20T03:49:58.987Z,0
2023-02-20T03:50:39.531Z,0
2023-02-20T03:55:21.014Z,0
2023-02-20T03:56:01.525Z,0
2023-02-20T03:56:42.096Z,0
2023-02-20T03:57:23.472Z,0
2023-02-20T03:59:37.025Z,0
2023-02-20T04:00:18.210Z,0
2023-02-20T04:00:58.802Z,0
2023-02-20T04:01:39.299Z,0
2023-02-20T04:03:53.391Z,0
2023-02-20T04:04:33.965Z,0
2023-02-20T04:05:16.032Z,0
2023-02-20T04:05:58.514Z,0
2023-02-20T04:07:57.636Z,0
2023-02-20T04:08:38.187Z,0
2023-02-20T04:09:18.757Z,0
2023-02-20T04:10:00.314Z,0
2023-02-20T04:12:31.320Z,0
2023-02-20T04:13:11.802Z,0
2023-02-20T04:13:53.252Z,0
2023-02-20T04:14:35.307Z,0
2023-02-20T04:16:52.129Z,0
2023-02-20T04:17:32.610Z,0
2023-02-20T04:18:17.493Z,0
2023-02-20T04:18:58.002Z,0
2023-02-20T04:19:38.742Z,0
2023-02-20T04:20:19.264Z,0
2023-02-20T04:20:59.758Z,0
2023-02-20T04:21:40.288Z,0
2023-02-20T04:22:20.819Z,0
2023-02-20T04:23:02.292Z,0
2023-02-20T04:25:16.331Z,0
2023-02-20T04:25:56.882Z,0
2023-02-20T04:26:37.428Z,0
2023-02-20T04:27:18.846Z,0
2023-02-20T04:29:31.892Z,0
2023-02-20T04:30:12.414Z,0
2023-02-20T04:30:52.928Z,0
2023-02-20T04:31:33.441Z,0
2023-02-20T04:33:49.211Z,0
2023-02-20T04:34:29.671Z,0
2023-02-20T04:35:10.221Z,0
2023-02-20T04:35:50.750Z,0
2023-02-20T04:36:31.307Z,0
2023-02-20T04:37:11.891Z,0
2023-02-20T04:37:52.442Z,0
2023-02-20T04:40:05.959Z,0
2023-02-20T04:40:47.385Z,0
2023-02-20T04:41:27.921Z,0
2023-02-20T04:42:10.160Z,0
2023-02-20T04:44:24.496Z,0
2023-02-20T04:45:04.987Z,0
2023-02-20T04:45:45.474Z,0
2023-02-20T04:46:25.994Z,0
2023-02-20T04:47:06.546Z,0
2023-02-20T04:47:47.091Z,0
2023-02-20T04:48:27.840Z,0
2023-02-20T04:49:08.600Z,0
2023-02-20T04:49:49.146Z,0
2023-02-20T04:53:23.866Z,0
2023-02-20T04:54:04.407Z,0
2023-02-20T04:54:44.943Z,0
2023-02-20T04:55:25.441Z,0
2023-02-20T04:58:00.487Z,0
2023-02-20T04:58:41.010Z,0
2023-02-20T04:59:21.487Z,0
2023-02-20T05:00:02.056Z,0
2023-02-20T05:02:15.756Z,0
2023-02-20T05:02:56.237Z,0
2023-02-20T05:03:36.764Z,0
2023-02-20T05:04:17.338Z,0
2023-02-20T05:04:57.829Z,0
2023-02-20T05:05:38.352Z,0
2023-02-20T05:06:18.866Z,0
2023-02-20T05:06:59.378Z,0
2023-02-20T05:07:40.634Z,0
2023-02-20T05:10:09.146Z,0
2023-02-20T05:10:49.659Z,0
2023-02-20T05:11:30.182Z,0
2023-02-20T05:12:10.697Z,0
2023-02-20T05:12:51.214Z,0
2023-02-20T05:13:31.743Z,0
2023-02-20T05:14:12.267Z,0
2023-02-20T05:14:53.304Z,0
2023-02-20T05:15:33.348Z,0
2023-02-20T05:18:12.705Z,0
2023-02-20T05:18:53.181Z,0
2023-02-20T05:19:33.717Z,0
2023-02-20T05:20:14.259Z,0
2023-02-20T05:20:54.783Z,0
2023-02-20T05:21:35.301Z,0
2023-02-20T05:22:15.818Z,0
2023-02-20T05:24:28.884Z,0
2023-02-20T05:25:09.450Z,0
2023-02-20T05:25:50.000Z,0
2023-02-20T05:26:30.497Z,0
2023-02-20T05:28:28.628Z,0
2023-02-20T05:29:09.142Z,0
2023-02-20T05:29:49.663Z,0
2023-02-20T05:30:30.229Z,0
2023-02-20T05:33:03.342Z,0
2023-02-20T05:33:43.883Z,0
2023-02-20T05:34:24.369Z,0
2023-02-20T05:35:04.904Z,0
2023-02-20T05:37:06.376Z,0
2023-02-20T05:37:46.939Z,0
2023-02-20T05:38:27.486Z,0
2023-02-20T05:39:08.031Z,0
2023-02-20T05:43:02.066Z,0
2023-02-20T05:43:42.623Z,0
2023-02-20T05:44:23.176Z,0
2023-02-20T05:45:03.678Z,0
2023-02-20T05:47:22.927Z,0
2023-02-20T05:48:04.608Z,0
2023-02-20T05:48:45.743Z,0
2023-02-20T05:49:26.924Z,0
2023-02-20T05:51:39.938Z,0
2023-02-20T05:52:20.458Z,0
2023-02-20T05:53:01.005Z,0
2023-02-20T05:53:41.504Z,0
2023-02-20T05:54:22.129Z,0
2023-02-20T05:55:02.671Z,0
2023-02-20T05:55:43.189Z,0
2023-02-20T05:56:23.698Z,0
2023-02-20T05:57:04.221Z,4
2023-02-20T05:57:44.727Z,4
2023-02-20T06:05:06.909Z,8
2023-02-20T06:05:47.413Z,8
2023-02-20T06:06:27.936Z,8
2023-02-20T06:07:08.485Z,8
2023-02-20T06:07:48.995Z,8
2023-02-20T06:08:29.508Z,12
2023-02-20T06:10:42.567Z,16
2023-02-20T06:11:23.080Z,20
2023-02-20T06:12:03.610Z,24
2023-02-20T06:12:44.138Z,28
2023-02-20T06:13:24.645Z,32
2023-02-20T06:14:05.182Z,36
2023-02-20T06:14:45.720Z,40
2023-02-20T06:15:26.241Z,44
2023-02-20T06:16:06.808Z,48
2023-02-20T06:16:47.339Z,56
2023-02-20T06:21:32.569Z,108
2023-02-20T06:22:13.145Z,120
2023-02-20T06:22:53.607Z,124
2023-02-20T06:23:34.135Z,136
2023-02-20T06:25:47.436Z,164
2023-02-20T06:26:27.956Z,176
2023-02-20T06:27:08.498Z,184
2023-02-20T06:27:48.973Z,200
2023-02-20T06:28:29.490Z,212
2023-02-20T06:29:10.000Z,228
2023-02-20T06:29:50.529Z,244
2023-02-20T06:30:31.087Z,256
2023-02-20T06:31:11.609Z,272
2023-02-20T06:31:52.244Z,292
2023-02-20T06:35:11.132Z,392
2023-02-20T06:35:51.618Z,412
2023-02-20T06:36:32.137Z,432
2023-02-20T06:37:12.656Z,456
2023-02-20T06:37:53.166Z,480
2023-02-20T06:38:33.696Z,500
2023-02-20T06:39:14.206Z,528
2023-02-20T06:39:54.934Z,548
2023-02-20T06:40:35.258Z,576
2023-02-20T06:41:15.813Z,600
2023-02-20T06:48:01.032Z,864
2023-02-20T06:48:41.566Z,884
2023-02-20T06:49:22.126Z,912
2023-02-20T06:50:02.640Z,936
2023-02-20T06:50:43.127Z,960
2023-02-20T06:51:23.726Z,984
2023-02-20T06:52:06.002Z,1012
2023-02-20T06:58:11.414Z,1228
2023-02-20T06:58:51.364Z,1256
2023-02-20T06:59:31.917Z,1284
2023-02-20T07:00:12.408Z,1312
2023-02-20T07:00:53.015Z,1344
2023-02-20T07:01:33.481Z,1372
2023-02-20T07:02:14.026Z,1408
2023-02-20T07:02:54.565Z,1436
2023-02-20T07:03:35.107Z,1468
2023-02-20T07:04:15.612Z,1496
2023-02-20T07:04:56.127Z,1524
2023-02-20T07:10:16.725Z,1768
2023-02-20T07:10:57.289Z,1804
2023-02-20T07:11:37.818Z,1840
2023-02-20T07:12:18.434Z,1872
2023-02-20T07:12:59.601Z,1904
2023-02-20T07:13:40.120Z,1932
2023-02-20T07:15:53.183Z,2032
2023-02-20T07:16:33.686Z,2060
2023-02-20T07:17:14.222Z,2084
2023-02-20T07:17:54.734Z,2104
2023-02-20T07:18:35.269Z,2128
2023-02-20T07:19:15.790Z,2144
2023-02-20T07:19:56.347Z,2164
2023-02-20T07:20:36.858Z,2184
2023-02-20T07:21:17.399Z,2208
2023-02-20T07:21:57.929Z,2228
2023-02-20T07:25:57.140Z,2332
2023-02-20T07:26:37.778Z,2348
2023-02-20T07:27:18.297Z,2352
2023-02-20T07:27:58.816Z,2364
2023-02-20T07:28:39.356Z,2368
2023-02-20T07:29:19.865Z,2376
2023-02-20T07:30:00.529Z,2388
2023-02-20T07:34:44.599Z,2456
2023-02-20T07:35:22.439Z,2496
2023-02-20T07:36:03.013Z,2540
2023-02-20T07:36:43.527Z,2568
2023-02-20T07:37:24.035Z,2584
2023-02-20T07:38:04.582Z,2604
2023-02-20T07:38:45.091Z,2736
2023-02-20T07:39:25.616Z,2968
2023-02-20T07:40:06.099Z,3088
2023-02-20T07:46:11.100Z,2676
2023-02-20T07:46:51.413Z,2676
2023-02-20T07:47:31.956Z,2684
2023-02-20T07:48:12.472Z,2704
2023-02-20T07:48:53.653Z,2728
2023-02-20T07:49:34.165Z,2760
2023-02-20T07:50:14.672Z,2780
2023-02-20T07:50:55.223Z,2800
2023-02-20T07:51:35.757Z,2820
2023-02-20T07:56:20.837Z,2868
2023-02-20T07:57:01.345Z,2896
2023-02-20T07:57:41.846Z,2924
2023-02-20T08:00:58.766Z,3028
2023-02-20T08:01:39.973Z,3044
2023-02-20T08:02:20.445Z,3048
2023-02-20T08:03:00.981Z,3064
2023-02-20T08:03:42.176Z,3084
2023-02-20T08:04:22.696Z,3096
2023-02-20T08:05:03.468Z,3112
2023-02-20T08:05:49.298Z,3124
2023-02-20T08:11:48.494Z,3232
2023-02-20T08:12:29.673Z,3244
2023-02-20T08:13:10.208Z,3248
2023-02-20T08:13:50.746Z,3260
2023-02-20T08:14:31.329Z,3268
2023-02-20T08:15:11.902Z,3276
2023-02-20T08:15:52.434Z,3288
2023-02-20T08:16:32.967Z,3304
2023-02-20T08:17:13.547Z,3320
2023-02-20T08:21:58.527Z,3536
2023-02-20T08:22:41.748Z,3580
2023-02-20T08:24:52.140Z,3704
2023-02-20T08:25:32.652Z,3732
2023-02-20T08:26:13.401Z,3764
2023-02-20T08:26:54.637Z,3800
2023-02-20T08:27:35.159Z,3832
2023-02-20T08:28:15.690Z,3868
2023-02-20T08:28:56.212Z,3916
2023-02-20T08:29:36.742Z,3988
2023-02-20T08:32:15.514Z,4164
2023-02-20T08:32:55.924Z,4196
2023-02-20T08:33:36.366Z,4208
2023-02-20T08:34:16.886Z,4252
2023-02-20T08:34:57.374Z,4284
2023-02-20T08:35:38.023Z,4300
2023-02-20T08:36:18.447Z,4296
2023-02-20T08:36:58.957Z,4300
2023-02-20T08:37:39.471Z,4328
2023-02-20T08:38:19.985Z,4364
2023-02-20T08:44:25.462Z,5092
2023-02-20T08:45:06.038Z,5236
2023-02-20T08:45:46.606Z,5340
2023-02-20T08:46:27.080Z,5424
2023-02-20T08:47:07.594Z,5424
2023-02-20T08:49:22.658Z,5720
2023-02-20T08:50:01.170Z,5952
2023-02-20T08:50:41.720Z,6012
2023-02-20T08:51:22.249Z,6076
2023-02-20T08:52:02.781Z,6160
2023-02-20T08:52:43.330Z,6412
2023-02-20T08:53:24.414Z,6624
2023-02-20T08:54:04.927Z,6808
2023-02-20T08:54:45.476Z,6976
2023-02-20T08:59:25.762Z,7640
2023-02-20T09:00:06.295Z,7480
2023-02-20T09:00:46.842Z,7288
2023-02-20T09:01:27.376Z,7084
2023-02-20T09:02:07.857Z,6872
2023-02-20T09:02:48.402Z,6536
2023-02-20T09:03:28.901Z,6364
2023-02-20T09:04:09.473Z,6144
2023-02-20T09:04:49.953Z,6112
2023-02-20T09:05:30.496Z,6044
2023-02-20T09:10:56.472Z,5308
2023-02-20T09:11:36.990Z,5272
2023-02-20T09:12:17.531Z,5220
2023-02-20T09:12:58.102Z,5188
2023-02-20T09:13:38.553Z,5152
2023-02-20T09:14:19.066Z,5188
2023-02-20T09:14:59.646Z,5256
2023-02-20T09:15:40.236Z,5412
2023-02-20T09:16:20.772Z,5588
2023-02-20T09:22:25.649Z,6908
2023-02-20T09:23:06.169Z,7016
2023-02-20T09:25:18.936Z,7044
2023-02-20T09:25:59.584Z,7404
2023-02-20T09:26:40.144Z,7384
2023-02-20T09:27:21.416Z,7280
2023-02-20T09:29:34.684Z,7092
2023-02-20T09:30:15.272Z,6940
2023-02-20T09:30:55.761Z,6912
2023-02-20T09:31:36.252Z,6864
2023-02-20T09:32:16.860Z,6808
2023-02-20T09:32:57.363Z,6708
2023-02-20T09:33:37.928Z,6700
2023-02-20T09:34:18.417Z,6680
2023-02-20T09:34:59.037Z,6680
2023-02-20T09:35:39.578Z,6708
2023-02-20T09:40:24.604Z,6476
2023-02-20T09:41:05.092Z,6456
2023-02-20T09:41:45.625Z,6564
2023-02-20T09:42:26.232Z,6700
2023-02-20T09:43:06.730Z,6724
2023-02-20T09:45:19.793Z,6964
2023-02-20T09:46:00.311Z,6920
2023-02-20T09:46:40.834Z,6904
2023-02-20T09:47:21.376Z,6872
2023-02-20T09:48:01.952Z,6840
2023-02-20T09:48:43.701Z,6844
2023-02-20T09:52:03.621Z,6584
2023-02-20T09:52:44.164Z,6676
2023-02-20T09:53:24.710Z,6660
2023-02-20T09:54:05.247Z,6604
2023-02-20T09:54:45.793Z,6516
2023-02-20T09:55:26.312Z,6900
2023-02-20T09:56:06.813Z,7268
2023-02-20T09:56:47.367Z,7380
2023-02-20T09:57:27.867Z,7448
2023-02-20T09:58:08.361Z,7472
2023-02-20T10:05:01.095Z,7968
2023-02-20T10:05:34.302Z,7908
2023-02-20T10:06:14.875Z,7844
2023-02-20T10:06:56.251Z,7800
2023-02-20T10:07:36.802Z,7716
2023-02-20T10:08:17.958Z,7596
2023-02-20T10:13:43.486Z,6928
2023-02-20T10:14:24.039Z,6692
2023-02-20T10:15:04.587Z,6648
2023-02-20T10:15:45.124Z,6740
2023-02-20T10:16:26.562Z,6748
2023-02-20T10:17:09.547Z,6936
2023-02-20T10:17:48.421Z,6980
2023-02-20T10:21:49.912Z,7368
2023-02-20T10:22:30.453Z,6804
2023-02-20T10:23:10.999Z,7004
2023-02-20T10:24:04.788Z,7404
2023-02-20T10:24:33.954Z,7712
2023-02-20T10:25:14.478Z,7368
2023-02-20T10:25:55.029Z,7072
2023-02-20T10:32:38.219Z,8796
2023-02-20T10:33:18.731Z,8828
2023-02-20T10:34:00.192Z,8912
2023-02-20T10:34:40.774Z,9036
2023-02-20T10:35:21.322Z,9192
2023-02-20T10:36:01.830Z,9320
2023-02-20T10:39:21.455Z,10476
2023-02-20T10:40:01.989Z,10672
2023-02-20T10:40:42.550Z,10580
2023-02-20T10:41:23.095Z,10772
2023-02-20T10:42:03.642Z,10012
2023-02-20T10:42:44.195Z,9064
2023-02-20T10:43:24.762Z,9256
2023-02-20T10:44:05.255Z,9344
2023-02-20T10:44:51.862Z,9496
2023-02-20T10:45:26.308Z,9472
2023-02-20T10:50:51.234Z,10364
2023-02-20T10:51:32.593Z,10776
2023-02-20T10:52:25.803Z,10828
2023-02-20T10:54:48.436Z,12040
2023-02-20T10:55:28.984Z,12080
2023-02-20T10:56:09.498Z,12516
2023-02-20T10:56:50.017Z,12764
2023-02-20T10:59:03.086Z,13584
2023-02-20T10:59:43.607Z,13676
2023-02-20T11:00:24.157Z,13752
2023-02-20T11:01:04.771Z,13972
2023-02-20T11:03:38.136Z,14548
2023-02-20T11:04:18.690Z,14976
2023-02-20T11:04:59.786Z,14976
2023-02-20T11:05:40.384Z,15076
2023-02-20T11:08:14.005Z,15800
2023-02-20T11:08:54.544Z,16048
2023-02-20T11:09:35.683Z,16288
2023-02-20T11:10:16.194Z,16608
2023-02-20T11:10:57.679Z,17152
2023-02-20T11:14:39.802Z,17952
2023-02-20T11:15:09.783Z,18240
2023-02-20T11:15:50.366Z,18464
2023-02-20T11:16:31.598Z,18656
2023-02-20T11:17:12.357Z,18912
2023-02-20T11:17:52.927Z,19232
2023-02-20T11:18:33.444Z,19456
2023-02-20T11:19:13.985Z,19616
2023-02-20T11:25:19.664Z,21408
2023-02-20T11:26:00.249Z,21632
2023-02-20T11:26:40.820Z,21952
2023-02-20T11:27:21.365Z,21984
2023-02-20T11:28:02.589Z,22368
2023-02-20T11:28:43.172Z,22528
2023-02-20T11:29:23.696Z,23008
2023-02-20T11:30:04.346Z,23264
2023-02-20T11:35:29.271Z,32704
2023-02-20T11:36:09.778Z,33024
2023-02-20T11:36:50.286Z,33664
2023-02-20T11:39:04.408Z,34784
2023-02-20T11:39:47.537Z,35200
2023-02-20T11:40:28.267Z,35776
2023-02-20T11:41:08.750Z,35744
2023-02-20T11:43:23.315Z,35296
2023-02-20T11:44:03.845Z,34560
2023-02-20T11:44:44.387Z,34528
2023-02-20T11:45:25.603Z,34912
2023-02-20T11:46:07.037Z,35200
2023-02-20T11:46:47.578Z,35328
2023-02-20T11:48:45.808Z,30560
2023-02-20T11:49:26.372Z,33632
2023-02-20T11:50:18.301Z,32512
2023-02-20T11:50:47.469Z,35168
2023-02-20T11:53:05.652Z,36544
2023-02-20T11:53:46.227Z,35968
2023-02-20T11:54:26.737Z,34368
2023-02-20T11:55:07.290Z,32480
2023-02-20T11:57:35.362Z,26848
2023-02-20T11:58:15.848Z,25920
2023-02-20T11:58:56.354Z,25472
2023-02-20T11:59:36.859Z,25056
2023-02-20T12:02:00.468Z,23616
2023-02-20T12:02:31.114Z,23520
2023-02-20T12:03:11.627Z,23392
2023-02-20T12:03:52.865Z,23392
2023-02-20T12:04:33.369Z,23168
2023-02-20T12:05:13.954Z,23520
2023-02-20T12:05:54.464Z,22976
2023-02-20T12:06:34.928Z,22752
2023-02-20T12:07:15.450Z,22432
2023-02-20T12:14:52.954Z,20800
2023-02-20T12:15:34.016Z,20672
2023-02-20T12:16:15.568Z,20672
2023-02-20T12:16:55.862Z,20320
2023-02-20T12:19:09.614Z,19776
2023-02-20T12:19:50.124Z,19872
2023-02-20T12:20:30.673Z,20288
2023-02-20T12:21:11.835Z,20512
2023-02-20T12:23:30.760Z,19872
2023-02-20T12:24:11.282Z,19680
2023-02-20T12:24:51.803Z,19456
2023-02-20T12:25:33.112Z,19200
2023-02-20T12:26:13.936Z,18944
2023-02-20T12:26:54.677Z,18880
2023-02-20T12:27:34.764Z,18656
2023-02-20T12:28:15.325Z,18304
2023-02-20T12:28:56.631Z,18080
2023-02-20T12:35:28.128Z,15984
2023-02-20T12:36:10.764Z,15712
2023-02-20T12:36:51.141Z,15432
2023-02-20T12:37:34.873Z,15288
2023-02-20T12:38:15.453Z,15032
2023-02-20T12:39:38.193Z,14548
2023-02-20T12:40:18.724Z,14428
2023-02-20T12:40:59.290Z,14304
2023-02-20T12:41:39.861Z,14100
2023-02-20T12:43:57.428Z,13340
2023-02-20T12:44:33.461Z,13120
2023-02-20T12:45:13.970Z,12944
2023-02-20T12:45:54.494Z,12872
2023-02-20T12:46:36.681Z,12716
2023-02-20T12:47:17.240Z,12584
2023-02-20T12:47:57.795Z,12388
2023-02-20T12:52:03.456Z,11596
2023-02-20T12:52:43.995Z,11472
2023-02-20T12:55:19.670Z,10904
2023-02-20T12:56:00.198Z,10804
2023-02-20T12:56:40.713Z,10684
2023-02-20T12:57:21.312Z,10544
2023-02-20T12:58:01.837Z,10424
2023-02-20T12:58:42.396Z,10280
2023-02-20T12:59:22.923Z,10092
2023-02-20T13:00:03.432Z,9984
2023-02-20T13:00:43.996Z,9860
2023-02-20T13:01:37.951Z,9692
2023-02-20T13:06:44.824Z,8316
2023-02-20T13:07:26.194Z,8108
2023-02-20T13:08:06.718Z,7948
2023-02-20T13:08:47.287Z,7824
2023-02-20T13:09:27.844Z,7692
2023-02-20T13:10:09.116Z,7596
2023-02-20T13:10:49.665Z,7504
2023-02-20T13:16:14.892Z,6500
2023-02-20T13:16:55.135Z,6348
2023-02-20T13:19:09.127Z,6048
2023-02-20T13:19:50.601Z,5920
2023-02-20T13:20:31.126Z,5792
2023-02-20T13:21:11.706Z,5664
2023-02-20T13:23:24.828Z,5432
2023-02-20T13:24:05.399Z,5384
2023-02-20T13:24:45.934Z,5332
2023-02-20T13:25:26.495Z,5276
2023-02-20T13:27:56.954Z,5160
2023-02-20T13:28:38.014Z,5132
2023-02-20T13:29:19.744Z,5104
2023-02-20T13:29:59.178Z,5052
2023-02-20T13:32:14.199Z,5012
2023-02-20T13:32:54.713Z,4976
2023-02-20T13:33:35.315Z,4924
2023-02-20T13:34:16.509Z,4900
2023-02-20T13:36:45.640Z,4856
2023-02-20T13:37:26.207Z,4820
2023-02-20T13:38:06.773Z,4800
2023-02-20T13:38:47.310Z,4784
2023-02-20T13:39:27.887Z,4776
2023-02-20T13:41:41.404Z,4768
2023-02-20T13:42:21.944Z,4716
2023-02-20T13:43:02.455Z,4668
2023-02-20T13:43:42.954Z,4640
2023-02-20T13:44:23.491Z,4612
2023-02-20T13:45:04.029Z,4572
2023-02-20T13:45:44.599Z,4552
2023-02-20T13:46:25.058Z,4508
2023-02-20T13:47:05.594Z,4484
2023-02-20T13:47:46.114Z,4456
2023-02-20T13:52:31.540Z,4224
2023-02-20T13:53:12.251Z,4196
2023-02-20T13:53:52.803Z,4172
2023-02-20T13:54:33.341Z,4168
2023-02-20T13:55:13.859Z,4148
2023-02-20T13:55:54.474Z,4096
2023-02-20T13:56:35.044Z,4060
2023-02-20T13:57:15.599Z,4032
2023-02-20T13:59:28.709Z,3956
2023-02-20T14:00:09.282Z,3944
2023-02-20T14:00:49.862Z,3932
2023-02-20T14:01:30.329Z,3920
2023-02-20T14:02:10.848Z,3908
2023-02-20T14:02:51.388Z,3856
2023-02-20T14:03:31.947Z,3844
2023-02-20T14:04:12.597Z,3836
2023-02-20T14:04:53.134Z,3824
2023-02-20T14:05:33.623Z,3812
2023-02-20T14:08:02.628Z,3704
2023-02-20T14:08:45.012Z,3652
2023-02-20T14:09:25.579Z,3616
2023-02-20T14:10:06.130Z,3612
2023-02-20T14:12:24.032Z,3576
2023-02-20T14:13:04.513Z,3560
2023-02-20T14:13:45.069Z,3524
2023-02-20T14:14:25.619Z,3508
2023-02-20T14:16:44.261Z,3420
2023-02-20T14:17:24.755Z,3400
2023-02-20T14:18:05.320Z,3388
2023-02-20T14:18:45.833Z,3360
2023-02-20T14:19:26.377Z,3344
2023-02-20T14:20:14.204Z,3328
2023-02-20T14:20:48.156Z,3292
2023-02-20T14:23:24.572Z,3232
2023-02-20T14:24:05.156Z,3200
2023-02-20T14:24:45.722Z,3172
2023-02-20T14:25:27.046Z,3180
2023-02-20T14:27:25.002Z,3156
2023-02-20T14:28:05.699Z,3144
2023-02-20T14:28:46.137Z,3136
2023-02-20T14:29:26.692Z,3124
2023-02-20T14:30:08.041Z,3108
2023-02-20T14:30:48.512Z,3100
2023-02-20T14:31:29.076Z,3092
2023-02-20T14:32:10.356Z,3088
2023-02-20T14:38:15.156Z,2952
2023-02-20T14:38:55.716Z,2932
2023-02-20T14:39:36.798Z,2928
2023-02-20T14:40:17.328Z,2924
2023-02-20T14:40:59.096Z,2928
2023-02-20T14:41:38.544Z,2928
2023-02-20T14:43:51.679Z,2888
2023-02-20T14:44:32.202Z,2872
2023-02-20T14:45:13.523Z,2860
2023-02-20T14:45:54.082Z,2852
2023-02-20T14:46:35.110Z,2844
2023-02-20T14:47:15.651Z,2836
2023-02-20T14:47:56.209Z,2828
2023-02-20T14:50:09.021Z,2800
2023-02-20T14:50:49.585Z,2792
2023-02-20T14:51:30.146Z,2784
2023-02-20T14:52:10.672Z,2776
2023-02-20T14:52:51.227Z,2756
2023-02-20T14:55:04.327Z,2720
2023-02-20T14:55:44.876Z,2716
2023-02-20T14:56:25.432Z,2700
2023-02-20T14:57:05.981Z,2676
2023-02-20T14:57:46.513Z,2660
2023-02-20T14:58:27.082Z,2644
2023-02-20T14:59:07.626Z,2628
2023-02-20T14:59:48.181Z,2620
2023-02-20T15:00:28.715Z,2608
2023-02-20T15:01:09.284Z,2600
2023-02-20T15:04:28.983Z,2560
2023-02-20T15:05:09.537Z,2540
2023-02-20T15:05:50.081Z,2520
2023-02-20T15:06:30.662Z,2508
2023-02-20T15:07:12.008Z,2496
2023-02-20T15:09:27.267Z,2444
2023-02-20T15:10:07.899Z,2428
2023-02-20T15:10:48.556Z,2416
2023-02-20T15:11:29.164Z,2412
2023-02-20T15:12:09.715Z,2400
2023-02-20T15:14:47.979Z,2324
2023-02-20T15:15:28.532Z,2308
2023-02-20T15:16:09.077Z,2300
2023-02-20T15:16:49.660Z,2288
2023-02-20T15:17:30.193Z,2284
2023-02-20T15:18:11.675Z,2272
2023-02-20T15:18:52.398Z,2264
2023-02-20T15:19:32.880Z,2248
2023-02-20T15:24:13.669Z,2164
2023-02-20T15:24:54.192Z,2148
2023-02-20T15:25:34.744Z,2136
2023-02-20T15:26:16.221Z,2124
2023-02-20T15:26:56.768Z,2116
2023-02-20T15:27:37.338Z,2096
2023-02-20T15:28:17.876Z,2084
2023-02-20T15:28:58.451Z,2064